Time;durP1;ratioP1;P1;durP2;ratioP2;P2;SDS_P1;SDS_P2;PMS_P1;PMS_P2;Temp;Humidity;BMP_temperature;BMP_pressure;BME280_temperature;BME280_humidity;BME280_pressure;Samples;Min_cycle;Max_cycle;Signal;HPM_P1;HPM_P2
2022/01/20 00:01:42;;;;;;;14.02;9.00;;;3.30;99.10;;;;;;5020252;28;20525;-78
2022/01/20 00:04:17;;;;;;;9.82;7.45;;;3.30;99.60;;;;;;5017666;28;20230;-78
2022/01/20 00:20:29;;;;;;;12.35;8.85;;;3.20;99.80;;;;;;5017293;28;20695;-78
2022/01/20 00:25:46;;;;;;;10.52;7.90;;;3.10;99.90;;;;;;5019350;28;20245;-77
2022/01/20 00:26:22;;;;;;;10.85;7.50;;;3.10;99.90;;;;;;5020034;28;20649;-77
2022/01/20 00:28:52;;;;;;;13.02;8.60;;;3.10;99.90;;;;;;5023673;28;20219;-77
2022/01/20 00:31:45;;;;;;;10.48;8.27;;;3.10;99.90;;;;;;5029923;28;20208;-78
2022/01/20 00:34:16;;;;;;;11.60;8.05;;;3.10;99.90;;;;;;5030410;28;20200;-77
2022/01/20 00:39:29;;;;;;;11.30;8.35;;;3.10;99.90;;;;;;5027764;28;20606;-77
2022/01/20 00:41:58;;;;;;;10.57;7.85;;;3.10;99.90;;;;;;5025687;28;20218;-77
2022/01/20 00:44:26;;;;;;;9.40;7.63;;;3.10;99.90;;;;;;5024077;28;20715;-78
2022/01/20 00:46:55;;;;;;;13.60;8.63;;;3.10;99.90;;;;;;5023651;28;20231;-77
2022/01/20 00:49:22;;;;;;;12.38;9.07;;;3.10;99.90;;;;;;5023270;28;20529;-78
2022/01/20 00:51:49;;;;;;;11.50;8.00;;;3.10;99.90;;;;;;5021153;28;20212;-78
2022/01/20 00:54:16;;;;;;;14.93;9.05;;;3.10;99.90;;;;;;5025102;28;20236;-77
2022/01/20 00:56:42;;;;;;;11.35;7.82;;;3.10;99.90;;;;;;5036041;28;20241;-77
2022/01/20 00:59:11;;;;;;;14.10;8.38;;;3.10;99.90;;;;;;5034619;28;20232;-77
2022/01/20 01:01:38;;;;;;;12.50;7.95;;;3.10;99.90;;;;;;5023290;28;20211;-78
2022/01/20 01:04:05;;;;;;;13.60;8.75;;;3.00;99.90;;;;;;5020828;28;20232;-78
2022/01/20 01:09:19;;;;;;;10.65;7.28;;;3.10;99.90;;;;;;4996503;28;20684;-77
2022/01/20 01:11:48;;;;;;;13.60;8.15;;;3.00;99.90;;;;;;4999676;28;20267;-77
2022/01/20 01:14:18;;;;;;;13.50;8.35;;;3.00;99.90;;;;;;5016578;28;20291;-77
2022/01/20 01:22:24;;;;;;;11.38;8.32;;;3.10;99.90;;;;;;5022640;28;20287;-76
2022/01/20 01:24:55;;;;;;;11.05;7.82;;;3.20;99.90;;;;;;5024193;28;20228;-77
2022/01/20 01:27:23;;;;;;;10.82;8.32;;;3.10;99.90;;;;;;5022632;28;20214;-78
2022/01/20 01:30:07;;;;;;;14.57;9.00;;;3.10;99.90;;;;;;5032317;28;20207;-78
2022/01/20 01:32:45;;;;;;;13.65;9.02;;;3.10;99.90;;;;;;5036664;28;20226;-77
2022/01/20 01:35:12;;;;;;;10.60;8.27;;;3.10;99.90;;;;;;5034689;28;20214;-77
2022/01/20 01:40:21;;;;;;;11.82;8.13;;;3.10;99.90;;;;;;5026455;28;20238;-78
2022/01/20 01:42:51;;;;;;;10.75;6.93;;;3.10;99.90;;;;;;5025186;28;20203;-77
2022/01/20 01:45:25;;;;;;;9.52;7.80;;;3.10;99.90;;;;;;5020935;28;20258;-79
2022/01/20 01:47:52;;;;;;;10.57;7.50;;;3.10;99.90;;;;;;5020808;28;20248;-78
2022/01/20 01:50:20;;;;;;;10.30;7.90;;;3.10;99.90;;;;;;5020757;28;20485;-77
2022/01/20 01:52:47;;;;;;;11.27;8.15;;;3.10;99.90;;;;;;5016131;28;20207;-77
2022/01/20 01:55:14;;;;;;;10.57;7.65;;;3.10;99.90;;;;;;5015902;28;20203;-77
2022/01/20 01:57:41;;;;;;;11.90;8.52;;;3.00;99.90;;;;;;5015668;28;20204;-78
2022/01/20 02:00:10;;;;;;;10.35;7.78;;;3.10;99.90;;;;;;5020917;28;20614;-78
2022/01/20 02:02:42;;;;;;;11.35;8.05;;;3.10;99.90;;;;;;5018236;28;20580;-76
2022/01/20 02:05:11;;;;;;;14.18;8.77;;;3.10;99.90;;;;;;5021116;28;20227;-78
2022/01/20 02:08:05;;;;;;;11.90;7.57;;;3.10;99.90;;;;;;5021120;28;20196;-79
2022/01/20 02:18:52;;;;;;;8.90;6.75;;;3.10;99.90;;;;;;5049564;23;20572;-78
2022/01/20 02:21:20;;;;;;;11.02;8.07;;;3.20;99.90;;;;;;5041371;28;20346;-80
2022/01/20 02:23:48;;;;;;;9.85;7.35;;;3.20;99.90;;;;;;5051915;28;20230;-79
2022/01/20 02:26:16;;;;;;;11.27;7.70;;;3.20;99.90;;;;;;5049534;28;20267;-80
2022/01/20 02:28:44;;;;;;;10.45;7.57;;;3.20;99.90;;;;;;5044801;28;20518;-80
2022/01/20 02:31:11;;;;;;;8.63;7.35;;;3.20;99.90;;;;;;5045513;28;20227;-82
2022/01/20 02:33:38;;;;;;;8.93;7.30;;;3.20;99.90;;;;;;5047927;28;20278;-82
2022/01/20 02:36:10;;;;;;;10.55;7.55;;;3.20;99.90;;;;;;5044356;28;20207;-80
2022/01/20 02:38:42;;;;;;;11.82;7.50;;;3.20;99.90;;;;;;5045408;28;20238;-80
2022/01/20 02:46:39;;;;;;;9.40;7.13;;;3.20;99.90;;;;;;5042894;28;20203;-81
2022/01/20 02:49:08;;;;;;;11.05;7.60;;;3.20;99.90;;;;;;5046224;28;20242;-79
2022/01/20 02:51:36;;;;;;;10.68;7.95;;;3.20;99.90;;;;;;5035607;28;20626;-77
2022/01/20 02:54:05;;;;;;;11.10;7.03;;;3.20;99.90;;;;;;5034154;28;20209;-82
2022/01/20 02:56:32;;;;;;;8.73;7.25;;;3.20;99.90;;;;;;5034017;28;20218;-78
2022/01/20 02:58:59;;;;;;;9.30;6.57;;;3.20;99.90;;;;;;5036102;28;20723;-79
2022/01/20 03:01:26;;;;;;;9.77;7.57;;;3.20;99.90;;;;;;5039325;28;20226;-80
2022/01/20 03:03:53;;;;;;;11.02;7.05;;;3.20;99.90;;;;;;5035706;28;20288;-77
2022/01/20 03:06:19;;;;;;;8.85;6.93;;;3.30;99.90;;;;;;5033030;28;20210;-82
2022/01/20 03:08:46;;;;;;;7.75;6.95;;;3.30;99.90;;;;;;5033411;28;20239;-77
2022/01/20 03:11:14;;;;;;;9.60;7.40;;;3.40;99.90;;;;;;5033743;28;20290;-78
2022/01/20 03:13:41;;;;;;;9.15;6.38;;;3.30;99.90;;;;;;5036886;28;20278;-78
2022/01/20 03:16:08;;;;;;;8.70;6.78;;;3.30;99.90;;;;;;5035681;28;20226;-80
2022/01/20 03:18:35;;;;;;;8.88;6.80;;;3.30;99.90;;;;;;5035248;28;20596;-79
2022/01/20 03:21:02;;;;;;;9.60;6.78;;;3.20;99.90;;;;;;5039834;28;20249;-79
2022/01/20 03:23:29;;;;;;;8.10;6.45;;;3.20;99.90;;;;;;5044999;28;20227;-84
2022/01/20 03:25:56;;;;;;;12.75;6.32;;;3.30;99.90;;;;;;5050451;28;20302;-82
2022/01/20 03:28:24;;;;;;;8.52;6.18;;;3.20;99.90;;;;;;5051307;28;20254;-81
2022/01/20 03:30:51;;;;;;;8.60;7.13;;;3.20;99.90;;;;;;5053085;28;20203;-82
2022/01/20 03:33:18;;;;;;;10.43;7.45;;;3.20;99.90;;;;;;5042875;28;20214;-78
2022/01/20 03:35:45;;;;;;;10.50;7.35;;;3.20;99.90;;;;;;5033889;28;20663;-77
2022/01/20 03:38:12;;;;;;;11.70;7.03;;;3.30;99.90;;;;;;5033648;28;20232;-79
2022/01/20 03:40:39;;;;;;;9.10;7.35;;;3.20;99.90;;;;;;5033588;28;20583;-77
2022/01/20 03:43:06;;;;;;;10.38;7.40;;;3.20;99.90;;;;;;5033755;28;20213;-78
2022/01/20 03:45:35;;;;;;;10.68;7.18;;;3.20;99.90;;;;;;5013873;28;20259;-78
2022/01/20 03:48:09;;;;;;;11.10;7.60;;;3.20;99.90;;;;;;5013974;28;20251;-78
2022/01/20 03:53:23;;;;;;;9.70;7.32;;;3.20;99.90;;;;;;5029677;28;20789;-79
2022/01/20 03:55:50;;;;;;;10.73;7.45;;;3.20;99.90;;;;;;5034420;28;20571;-79
2022/01/20 03:58:17;;;;;;;10.00;7.30;;;3.20;99.90;;;;;;5037538;28;20644;-80
2022/01/20 04:00:46;;;;;;;10.65;8.13;;;3.20;99.90;;;;;;5048985;28;20608;-79
2022/01/20 04:03:15;;;;;;;8.85;7.45;;;3.20;99.90;;;;;;5045488;28;20211;-79
2022/01/20 04:05:54;;;;;;;9.25;7.60;;;3.20;99.90;;;;;;5049753;28;20230;-78
2022/01/20 04:08:22;;;;;;;9.30;6.25;;;3.20;99.90;;;;;;5053530;28;20241;-81
2022/01/20 04:10:48;;;;;;;10.18;7.75;;;3.30;99.90;;;;;;5043790;28;20203;-77
2022/01/20 04:13:17;;;;;;;10.35;8.20;;;3.30;99.90;;;;;;5038381;28;20289;-78
2022/01/20 04:15:48;;;;;;;9.68;7.60;;;3.30;99.90;;;;;;5039356;28;20749;-79
2022/01/20 04:18:21;;;;;;;8.80;6.97;;;3.30;99.90;;;;;;5043584;28;20250;-80
2022/01/20 04:20:48;;;;;;;10.95;7.63;;;3.30;99.90;;;;;;5042917;28;20211;-80
2022/01/20 04:23:15;;;;;;;10.05;7.97;;;3.30;99.90;;;;;;5043825;28;20226;-80
2022/01/20 04:25:42;;;;;;;10.15;7.40;;;3.30;99.90;;;;;;5048404;28;20306;-80
2022/01/20 04:28:08;;;;;;;10.73;7.20;;;3.30;99.90;;;;;;5050090;28;20223;-80
2022/01/20 04:30:36;;;;;;;10.05;8.13;;;3.30;99.90;;;;;;5044814;28;20203;-81
2022/01/20 04:33:04;;;;;;;13.10;8.77;;;3.30;99.90;;;;;;5044818;28;20210;-78
2022/01/20 04:35:32;;;;;;;13.43;7.63;;;3.30;99.90;;;;;;5047717;28;20569;-80
2022/01/20 04:37:59;;;;;;;13.32;7.50;;;3.30;99.90;;;;;;5049616;28;20219;-79
2022/01/20 04:40:26;;;;;;;9.90;8.32;;;3.30;99.90;;;;;;5050239;28;20215;-80
2022/01/20 04:42:54;;;;;;;12.77;8.00;;;3.20;99.90;;;;;;5043716;28;20247;-79
2022/01/20 04:45:27;;;;;;;12.38;8.40;;;3.30;99.90;;;;;;5041920;28;20827;-80
2022/01/20 04:48:02;;;;;;;16.90;9.27;;;3.30;99.90;;;;;;5043361;28;20215;-80
2022/01/20 04:58:45;;;;;;;12.55;8.63;;;3.40;99.90;;;;;;5039633;28;20258;-76
2022/01/20 05:01:12;;;;;;;14.70;9.85;;;3.40;99.90;;;;;;5035844;28;20266;-78
2022/01/20 05:03:39;;;;;;;12.38;9.38;;;3.40;99.90;;;;;;5034726;28;20207;-78
2022/01/20 05:06:09;;;;;;;12.52;9.05;;;3.40;99.90;;;;;;5034442;28;20223;-77
2022/01/20 05:08:36;;;;;;;13.13;9.65;;;3.40;99.90;;;;;;5035635;28;20690;-78
2022/01/20 05:11:04;;;;;;;15.18;9.32;;;3.40;99.90;;;;;;5036350;28;20237;-78
2022/01/20 05:13:37;;;;;;;12.48;8.80;;;3.40;99.90;;;;;;5049130;28;20215;-80
2022/01/20 05:16:05;;;;;;;15.90;9.90;;;3.40;99.90;;;;;;5047323;28;20192;-79
2022/01/20 05:18:32;;;;;;;13.15;9.00;;;3.40;99.90;;;;;;5042334;28;20243;-79
2022/01/20 05:20:59;;;;;;;13.38;9.75;;;3.40;99.90;;;;;;5036225;28;20217;-78
2022/01/20 05:23:27;;;;;;;14.05;9.38;;;3.40;99.90;;;;;;5035433;28;20575;-79
2022/01/20 05:25:54;;;;;;;13.32;9.43;;;3.40;99.90;;;;;;5035872;28;20317;-80
2022/01/20 05:28:21;;;;;;;13.13;9.48;;;3.40;99.90;;;;;;5035744;28;20223;-78
2022/01/20 05:30:48;;;;;;;15.40;10.23;;;3.40;99.90;;;;;;5035997;28;20235;-79
2022/01/20 05:33:15;;;;;;;14.23;9.38;;;3.40;99.90;;;;;;5041995;28;20207;-80
2022/01/20 05:35:42;;;;;;;15.13;10.02;;;3.50;99.90;;;;;;5045219;28;20234;-78
2022/01/20 05:38:09;;;;;;;14.82;10.23;;;3.40;99.90;;;;;;5045141;28;20234;-80
2022/01/20 05:40:37;;;;;;;13.73;9.35;;;3.40;99.90;;;;;;5046333;28;20203;-80
2022/01/20 05:43:04;;;;;;;18.52;10.65;;;3.50;99.90;;;;;;5043150;28;20239;-81
2022/01/20 05:45:32;;;;;;;15.25;10.38;;;3.40;99.90;;;;;;5038866;28;20319;-78
2022/01/20 05:48:09;;;;;;;14.13;9.45;;;3.40;99.90;;;;;;5040934;28;20726;-80
2022/01/20 05:50:36;;;;;;;13.60;9.50;;;3.40;99.90;;;;;;5039482;28;20214;-79
2022/01/20 05:53:04;;;;;;;13.48;10.48;;;3.40;99.90;;;;;;5038990;28;20234;-77
2022/01/20 05:55:32;;;;;;;16.02;9.88;;;3.40;99.90;;;;;;5038805;28;20272;-77
2022/01/20 05:58:00;;;;;;;14.25;9.40;;;3.40;99.90;;;;;;5040286;28;20310;-79
2022/01/20 06:00:28;;;;;;;14.45;9.65;;;3.40;99.90;;;;;;5043153;28;20280;-79
2022/01/20 06:05:41;;;;;;;15.48;9.43;;;3.40;99.90;;;;;;5039589;28;20242;-79
2022/01/20 06:08:09;;;;;;;16.85;10.25;;;3.50;99.90;;;;;;5040167;28;20310;-79
2022/01/20 06:10:36;;;;;;;16.42;10.68;;;3.50;99.90;;;;;;5047775;28;20214;-79
2022/01/20 06:13:05;;;;;;;16.92;11.07;;;3.50;99.90;;;;;;5053706;28;20194;-77
2022/01/20 06:15:32;;;;;;;14.10;10.23;;;3.50;99.90;;;;;;5056763;28;20254;-77
2022/01/20 06:17:59;;;;;;;17.45;11.23;;;3.50;99.90;;;;;;5055238;28;20219;-78
2022/01/20 06:20:26;;;;;;;18.10;11.95;;;3.50;99.90;;;;;;5048380;28;20199;-78
2022/01/20 06:22:53;;;;;;;18.58;10.98;;;3.50;99.90;;;;;;5056518;28;20194;-81
2022/01/20 06:25:20;;;;;;;13.82;10.15;;;3.50;99.90;;;;;;5056067;28;20227;-77
2022/01/20 06:27:47;;;;;;;16.02;11.05;;;3.50;99.90;;;;;;5056489;28;20195;-77
2022/01/20 06:30:16;;;;;;;17.40;11.00;;;3.60;99.90;;;;;;5055691;28;20207;-78
2022/01/20 06:32:44;;;;;;;16.52;10.82;;;3.60;99.90;;;;;;5054946;28;20203;-79
2022/01/20 06:35:11;;;;;;;19.65;11.90;;;3.60;99.90;;;;;;5051271;28;20229;-77
2022/01/20 06:37:38;;;;;;;22.05;11.30;;;3.60;99.90;;;;;;5051437;28;20365;-78
2022/01/20 06:40:07;;;;;;;20.83;12.35;;;3.60;99.90;;;;;;5050651;28;20302;-78
2022/01/20 06:42:35;;;;;;;17.60;12.20;;;3.60;99.90;;;;;;5047123;28;20211;-79
2022/01/20 06:45:03;;;;;;;15.85;10.95;;;3.60;99.90;;;;;;5042610;28;20212;-78
2022/01/20 06:47:31;;;;;;;13.30;10.43;;;3.70;99.90;;;;;;5037807;28;20235;-78
2022/01/20 06:50:00;;;;;;;16.23;10.65;;;3.70;99.90;;;;;;5037936;28;20250;-77
2022/01/20 06:52:27;;;;;;;15.95;11.00;;;3.70;99.90;;;;;;5041915;28;20199;-76
2022/01/20 06:54:56;;;;;;;18.65;11.80;;;3.60;99.90;;;;;;5042438;28;20302;-80
2022/01/20 06:57:23;;;;;;;20.10;12.77;;;3.60;99.90;;;;;;5038990;28;20671;-78
2022/01/20 06:59:50;;;;;;;18.45;11.30;;;3.70;99.90;;;;;;5041311;28;20231;-77
2022/01/20 07:02:17;;;;;;;16.67;11.50;;;3.60;99.90;;;;;;5039227;28;20721;-76
2022/01/20 07:04:47;;;;;;;18.45;12.20;;;3.70;99.90;;;;;;5043112;28;20286;-77
2022/01/20 07:07:14;;;;;;;19.58;11.98;;;3.70;99.90;;;;;;5037357;28;20309;-77
2022/01/20 07:09:41;;;;;;;16.42;11.70;;;3.60;99.90;;;;;;5038299;28;20310;-76
2022/01/20 07:12:10;;;;;;;18.08;11.65;;;3.60;99.90;;;;;;4977942;28;169643;-78
2022/01/20 07:14:37;;;;;;;18.83;10.98;;;3.70;99.90;;;;;;5009058;28;20287;-78
2022/01/20 07:17:04;;;;;;;16.77;10.02;;;3.70;99.90;;;;;;4997084;28;20235;-78
2022/01/20 07:19:31;;;;;;;16.65;11.95;;;3.70;99.90;;;;;;4996991;28;20270;-80
2022/01/20 07:22:00;;;;;;;20.20;11.80;;;3.80;99.90;;;;;;4998562;28;20271;-77
2022/01/20 07:24:29;;;;;;;17.95;11.85;;;3.80;99.90;;;;;;4999921;28;20204;-78
2022/01/20 07:26:57;;;;;;;16.83;11.75;;;3.80;99.90;;;;;;5004306;28;20239;-78
2022/01/20 07:29:24;;;;;;;17.20;11.68;;;3.80;99.90;;;;;;5009779;28;20228;-77
2022/01/20 07:31:51;;;;;;;19.98;12.93;;;3.80;99.90;;;;;;5013999;28;20196;-78
2022/01/20 07:34:19;;;;;;;19.85;13.02;;;3.70;99.90;;;;;;5014855;28;20235;-75
2022/01/20 07:36:46;;;;;;;17.85;11.48;;;3.70;99.90;;;;;;5013630;28;20208;-80
2022/01/20 07:39:15;;;;;;;16.25;11.07;;;3.70;99.90;;;;;;5006247;28;20316;-78
2022/01/20 07:41:42;;;;;;;18.17;11.43;;;3.80;99.90;;;;;;4984275;28;20620;-76
2022/01/20 07:44:09;;;;;;;16.83;10.98;;;3.80;99.90;;;;;;5001835;28;20205;-76
2022/01/20 07:46:36;;;;;;;17.63;11.75;;;3.80;99.90;;;;;;5000262;28;20319;-77
2022/01/20 07:49:04;;;;;;;16.73;11.63;;;3.80;99.90;;;;;;4999550;28;20248;-78
2022/01/20 07:51:31;;;;;;;17.10;10.50;;;3.80;99.90;;;;;;4998765;28;20200;-77
2022/01/20 07:53:58;;;;;;;18.77;10.73;;;3.80;99.90;;;;;;5000483;28;20204;-78
2022/01/20 07:56:27;;;;;;;18.83;13.40;;;3.80;99.90;;;;;;4998061;28;20237;-78
2022/01/20 07:58:54;;;;;;;18.48;11.00;;;3.80;99.90;;;;;;5001262;28;20232;-78
2022/01/20 08:01:24;;;;;;;15.07;10.82;;;3.80;99.90;;;;;;5004948;28;20216;-80
2022/01/20 08:03:52;;;;;;;17.05;10.77;;;3.80;99.90;;;;;;5001878;28;20219;-79
2022/01/20 08:06:19;;;;;;;16.83;11.15;;;3.80;99.90;;;;;;5000626;28;20220;-81
2022/01/20 08:08:46;;;;;;;17.15;10.63;;;3.80;99.90;;;;;;5006313;28;20224;-80
2022/01/20 08:11:14;;;;;;;16.90;11.07;;;3.80;99.90;;;;;;5007856;28;20207;-79
2022/01/20 08:13:42;;;;;;;18.15;10.82;;;3.90;99.90;;;;;;5007838;28;20331;-79
2022/01/20 08:16:09;;;;;;;22.05;12.15;;;3.80;99.90;;;;;;5007131;28;20256;-80
2022/01/20 08:18:36;;;;;;;18.95;11.30;;;3.80;99.90;;;;;;5019281;23;20229;-76
2022/01/20 08:21:03;;;;;;;17.38;10.45;;;3.90;99.90;;;;;;4962139;29;20305;-78
2022/01/20 08:23:30;;;;;;;17.67;10.52;;;3.90;99.90;;;;;;4962887;29;20202;-76
2022/01/20 08:25:57;;;;;;;14.75;10.32;;;4.00;99.90;;;;;;4962622;28;20229;-76
2022/01/20 08:28:24;;;;;;;16.20;11.13;;;4.00;99.90;;;;;;4962894;28;20242;-77
2022/01/20 08:30:53;;;;;;;20.98;11.30;;;4.00;99.90;;;;;;4962553;28;20503;-76
2022/01/20 08:33:20;;;;;;;16.42;10.35;;;4.00;99.50;;;;;;4955342;29;20214;-77
2022/01/20 08:35:47;;;;;;;18.23;10.95;;;4.00;98.40;;;;;;4954341;28;20228;-74
2022/01/20 08:38:14;;;;;;;20.00;11.07;;;4.10;98.30;;;;;;4972342;28;20206;-74
2022/01/20 08:40:41;;;;;;;16.15;9.77;;;4.10;97.60;;;;;;4965629;28;20218;-73
2022/01/20 08:43:08;;;;;;;14.93;10.02;;;4.10;97.40;;;;;;4968457;28;20198;-75
2022/01/20 08:45:37;;;;;;;13.57;9.50;;;4.10;96.90;;;;;;4967398;28;20210;-73
2022/01/20 08:48:08;;;;;;;18.05;10.82;;;4.00;96.50;;;;;;4965305;28;20261;-74
2022/01/20 08:50:35;;;;;;;18.70;9.85;;;4.10;96.60;;;;;;4960778;28;20277;-74
2022/01/20 08:53:02;;;;;;;19.35;10.10;;;4.10;96.60;;;;;;4961629;28;20228;-75
2022/01/20 08:55:29;;;;;;;20.30;10.20;;;4.30;96.60;;;;;;4959911;29;20646;-77
2022/01/20 08:57:57;;;;;;;16.83;11.48;;;4.30;95.70;;;;;;4959681;28;20338;-74
2022/01/20 09:00:27;;;;;;;16.88;9.80;;;4.30;95.00;;;;;;4959734;28;20233;-76
2022/01/20 09:02:55;;;;;;;13.13;9.45;;;4.40;94.90;;;;;;4960783;28;20220;-74
2022/01/20 09:05:24;;;;;;;16.73;10.48;;;4.50;94.10;;;;;;4960089;29;20358;-75
2022/01/20 09:07:51;;;;;;;17.15;10.13;;;4.50;93.70;;;;;;4962580;28;20236;-75
2022/01/20 09:10:20;;;;;;;17.40;10.20;;;4.60;93.20;;;;;;4965764;28;20253;-72
2022/01/20 09:15:32;;;;;;;12.35;8.70;;;4.70;92.10;;;;;;4971187;28;20266;-74
2022/01/20 09:18:01;;;;;;;10.63;7.55;;;4.70;91.70;;;;;;4977154;28;20293;-76
2022/01/20 09:20:31;;;;;;;13.18;8.60;;;4.80;91.50;;;;;;4964596;28;20630;-76
2022/01/20 09:22:58;;;;;;;15.88;10.07;;;4.80;91.20;;;;;;4963174;29;20280;-76
2022/01/20 09:25:25;;;;;;;12.77;8.65;;;4.70;90.50;;;;;;4960511;29;20217;-77
2022/01/20 09:27:52;;;;;;;17.90;9.05;;;4.60;90.70;;;;;;4965489;28;20234;-77
2022/01/20 09:30:22;;;;;;;19.17;8.20;;;4.50;91.30;;;;;;4962186;29;20265;-76
2022/01/20 09:33:00;;;;;;;28.85;9.48;;;4.50;91.40;;;;;;4958705;28;20225;-77
2022/01/20 09:35:31;;;;;;;13.85;8.80;;;4.40;91.40;;;;;;4958367;28;20205;-77
2022/01/20 09:37:59;;;;;;;15.20;9.50;;;4.40;92.20;;;;;;4959681;29;20289;-75
2022/01/20 09:40:27;;;;;;;18.27;9.40;;;4.50;93.10;;;;;;4959917;28;20662;-76
2022/01/20 09:42:53;;;;;;;14.57;9.50;;;4.70;93.10;;;;;;4958876;29;20732;-79
2022/01/20 09:45:21;;;;;;;14.48;9.45;;;4.90;92.80;;;;;;4959619;28;20582;-77
2022/01/20 09:47:48;;;;;;;15.07;10.00;;;4.90;90.60;;;;;;4959106;28;20225;-77
2022/01/20 09:50:19;;;;;;;15.88;8.35;;;4.90;89.60;;;;;;4959556;29;20312;-77
2022/01/20 09:52:47;;;;;;;16.00;8.73;;;4.80;89.90;;;;;;4959617;29;20210;-77
2022/01/20 09:55:15;;;;;;;12.65;8.52;;;4.90;90.10;;;;;;4957656;28;20206;-77
2022/01/20 09:57:42;;;;;;;18.10;8.40;;;5.00;89.60;;;;;;4958154;29;20198;-75
2022/01/20 10:00:13;;;;;;;13.70;8.73;;;5.00;87.60;;;;;;4957808;29;20226;-77
2022/01/20 10:02:52;;;;;;;17.13;8.77;;;5.00;87.70;;;;;;4956360;29;20213;-77
2022/01/20 10:05:27;;;;;;;11.50;8.32;;;5.00;87.90;;;;;;4958633;29;20746;-76
2022/01/20 10:08:01;;;;;;;15.13;8.27;;;5.20;88.50;;;;;;4957962;28;20229;-76
2022/01/20 10:10:41;;;;;;;16.10;9.60;;;5.20;87.50;;;;;;4957645;29;20206;-78
2022/01/20 10:13:10;;;;;;;16.83;9.40;;;5.30;85.80;;;;;;4959694;29;20219;-77
2022/01/20 10:15:38;;;;;;;11.70;8.90;;;5.30;85.90;;;;;;4958192;28;20648;-77
2022/01/20 10:18:07;;;;;;;15.70;9.20;;;5.30;85.80;;;;;;4957543;28;20596;-76
2022/01/20 10:20:34;;;;;;;18.77;9.20;;;5.20;85.80;;;;;;4956644;29;20220;-78
2022/01/20 10:23:03;;;;;;;12.57;9.15;;;5.40;85.90;;;;;;4958644;29;20212;-77
2022/01/20 10:25:35;;;;;;;14.70;8.40;;;5.60;84.70;;;;;;4958446;28;20327;-77
2022/01/20 10:28:02;;;;;;;13.77;7.30;;;5.60;81.90;;;;;;4956454;28;20225;-77
2022/01/20 10:30:34;;;;;;;13.00;7.80;;;5.60;81.60;;;;;;4955980;29;20240;-75
2022/01/20 10:33:02;;;;;;;16.48;8.45;;;5.60;80.70;;;;;;4955640;29;20256;-76
2022/01/20 10:35:32;;;;;;;17.35;8.45;;;5.60;81.70;;;;;;4958044;28;20312;-76
2022/01/20 10:38:11;;;;;;;14.30;8.38;;;5.60;80.80;;;;;;4958561;29;20200;-77
2022/01/20 10:40:47;;;;;;;16.25;8.38;;;5.60;79.80;;;;;;4957667;29;20218;-75
2022/01/20 10:43:24;;;;;;;15.95;8.65;;;5.60;80.60;;;;;;4959296;29;20194;-75
2022/01/20 10:46:03;;;;;;;14.25;8.77;;;5.60;80.60;;;;;;4968055;29;20201;-77
2022/01/20 10:48:29;;;;;;;14.60;8.60;;;5.50;80.90;;;;;;4973337;28;20225;-76
2022/01/20 10:50:56;;;;;;;14.27;8.80;;;5.60;81.40;;;;;;4972154;28;20233;-78
2022/01/20 10:53:27;;;;;;;11.55;7.95;;;5.50;80.90;;;;;;4970417;29;20300;-79
2022/01/20 10:56:05;;;;;;;16.02;9.88;;;5.40;81.70;;;;;;4971097;29;20689;-78
2022/01/20 10:58:34;;;;;;;13.93;8.30;;;5.50;81.80;;;;;;4962637;28;20248;-78
2022/01/20 11:01:03;;;;;;;15.95;8.57;;;5.50;81.80;;;;;;4974278;28;20265;-78
2022/01/20 11:03:31;;;;;;;15.07;9.07;;;5.40;81.70;;;;;;4965200;28;20216;-79
2022/01/20 11:05:59;;;;;;;16.05;8.75;;;5.40;82.40;;;;;;4971149;29;20240;-77
2022/01/20 11:08:29;;;;;;;15.15;9.43;;;5.40;82.40;;;;;;4963066;28;20240;-76
2022/01/20 11:10:58;;;;;;;19.42;9.48;;;5.40;82.00;;;;;;4955532;29;20214;-78
2022/01/20 11:13:25;;;;;;;19.60;8.90;;;5.50;82.20;;;;;;4956232;29;20210;-78
2022/01/20 11:15:52;;;;;;;17.90;9.65;;;5.60;81.90;;;;;;4955492;29;20228;-78
2022/01/20 11:18:20;;;;;;;12.98;7.15;;;5.60;80.60;;;;;;4955372;28;20220;-78
2022/01/20 11:20:50;;;;;;;14.70;7.72;;;5.50;79.90;;;;;;4960662;29;20653;-78
2022/01/20 11:23:18;;;;;;;20.20;8.70;;;5.40;80.20;;;;;;4972347;29;20297;-79
2022/01/20 11:25:47;;;;;;;14.38;8.50;;;5.30;81.10;;;;;;4971218;29;20225;-78
2022/01/20 11:28:18;;;;;;;18.67;9.05;;;5.30;81.80;;;;;;4969832;29;20214;-77
2022/01/20 11:30:55;;;;;;;13.55;8.82;;;5.40;82.20;;;;;;4959341;29;20567;-77
2022/01/20 11:33:33;;;;;;;14.30;8.57;;;5.50;81.80;;;;;;4957099;29;20202;-78
2022/01/20 11:36:01;;;;;;;13.75;7.70;;;5.60;81.90;;;;;;4960694;29;20240;-78
2022/01/20 11:38:38;;;;;;;21.13;9.60;;;5.80;80.80;;;;;;4960145;29;20332;-79
2022/01/20 11:41:06;;;;;;;17.73;8.63;;;6.00;79.50;;;;;;4959473;29;20609;-77
2022/01/20 11:43:36;;;;;;;12.27;7.50;;;6.30;77.30;;;;;;4958681;29;20339;-78
2022/01/20 11:46:11;;;;;;;11.07;7.82;;;6.60;75.00;;;;;;4958880;29;20210;-77
2022/01/20 11:48:54;;;;;;;13.93;7.63;;;6.80;71.80;;;;;;4956370;28;20229;-77
2022/01/20 11:51:22;;;;;;;11.10;7.07;;;6.90;71.70;;;;;;4954761;29;20665;-76
2022/01/20 11:53:58;;;;;;;9.63;4.57;;;6.80;70.70;;;;;;4955014;29;20216;-77
2022/01/20 11:56:35;;;;;;;1.70;1.48;;;6.00;67.80;;;;;;4955650;29;20216;-78
2022/01/20 11:59:02;;;;;;;2.45;1.55;;;4.70;71.60;;;;;;4956592;29;20240;-77
2022/01/20 12:01:30;;;;;;;5.22;2.30;;;3.40;78.60;;;;;;4956502;29;20210;-78
2022/01/20 12:03:58;;;;;;;2.90;2.08;;;2.80;85.60;;;;;;4955902;29;20665;-77
2022/01/20 12:06:27;;;;;;;5.40;1.70;;;2.70;90.40;;;;;;4955265;29;20240;-77
2022/01/20 12:08:56;;;;;;;4.78;1.20;;;2.60;92.10;;;;;;4954831;29;20705;-78
2022/01/20 12:11:37;;;;;;;6.03;2.05;;;2.50;93.60;;;;;;4954722;28;20524;-77
2022/01/20 12:14:04;;;;;;;5.57;1.85;;;2.60;95.10;;;;;;4956081;29;20301;-76
2022/01/20 12:16:31;;;;;;;3.47;2.00;;;2.60;96.10;;;;;;4956114;29;20285;-77
2022/01/20 12:19:00;;;;;;;5.18;2.53;;;2.60;96.90;;;;;;4961524;28;20546;-76
2022/01/20 12:21:30;;;;;;;5.82;2.03;;;2.70;97.80;;;;;;4964002;28;20248;-75
2022/01/20 12:23:58;;;;;;;4.65;2.80;;;2.80;97.90;;;;;;4968213;28;20229;-76
2022/01/20 12:26:25;;;;;;;5.07;1.83;;;2.90;97.90;;;;;;4960900;29;20221;-77
2022/01/20 12:29:02;;;;;;;3.28;1.85;;;3.10;97.10;;;;;;4958965;28;20232;-77
2022/01/20 12:31:29;;;;;;;2.25;2.03;;;3.20;96.20;;;;;;4958883;29;20216;-76
2022/01/20 12:33:56;;;;;;;5.30;2.28;;;3.30;95.40;;;;;;4960687;28;20210;-77
2022/01/20 12:36:23;;;;;;;5.32;2.60;;;3.40;94.50;;;;;;4961381;28;20219;-77
2022/01/20 12:38:53;;;;;;;3.97;2.25;;;3.50;92.80;;;;;;4962510;28;20234;-77
2022/01/20 12:41:21;;;;;;;4.10;2.33;;;3.50;91.80;;;;;;4962359;29;20220;-78
2022/01/20 12:43:51;;;;;;;9.23;2.65;;;3.50;91.10;;;;;;4961755;28;20298;-78
2022/01/20 12:46:21;;;;;;;4.10;2.40;;;3.40;90.80;;;;;;4961527;29;20210;-77
2022/01/20 12:48:58;;;;;;;4.03;2.25;;;3.40;91.00;;;;;;4966691;28;20301;-77
2022/01/20 12:51:37;;;;;;;11.20;3.00;;;3.50;90.60;;;;;;4972037;28;20198;-78
2022/01/20 12:54:07;;;;;;;3.40;2.30;;;3.50;90.70;;;;;;4974315;28;20274;-78
2022/01/20 12:56:36;;;;;;;6.22;2.97;;;3.50;90.90;;;;;;4969549;28;20276;-77
2022/01/20 12:59:05;;;;;;;6.18;3.03;;;3.60;91.00;;;;;;4970217;28;20222;-79
2022/01/20 13:01:41;;;;;;;6.03;2.47;;;3.60;90.80;;;;;;4967035;29;20202;-77
2022/01/20 13:04:09;;;;;;;6.13;2.92;;;3.70;90.40;;;;;;4964173;29;20221;-78
2022/01/20 13:06:40;;;;;;;5.32;3.08;;;3.70;90.10;;;;;;4964828;29;20238;-78
2022/01/20 13:09:09;;;;;;;3.65;2.40;;;3.80;90.30;;;;;;4961059;28;20233;-78
2022/01/20 13:11:41;;;;;;;5.63;3.40;;;3.90;90.10;;;;;;4978686;28;20213;-79
2022/01/20 13:14:10;;;;;;;4.88;2.53;;;4.00;89.90;;;;;;4962270;29;20213;-78
2022/01/20 13:16:37;;;;;;;6.40;2.65;;;4.00;88.80;;;;;;4961352;28;20218;-77
2022/01/20 13:19:07;;;;;;;3.58;2.40;;;4.10;87.40;;;;;;4963550;28;20230;-78
2022/01/20 13:21:39;;;;;;;5.53;2.22;;;4.10;86.50;;;;;;4965186;28;20206;-77
2022/01/20 13:24:08;;;;;;;7.22;3.30;;;4.10;86.90;;;;;;4972310;28;20228;-77
2022/01/20 13:26:47;;;;;;;6.95;2.53;;;4.20;86.40;;;;;;4969462;28;20245;-78
2022/01/20 13:29:14;;;;;;;19.52;2.80;;;4.30;85.30;;;;;;4968220;28;20269;-79
2022/01/20 13:31:41;;;;;;;9.50;2.80;;;4.30;85.00;;;;;;4963490;28;20217;-78
2022/01/20 13:34:11;;;;;;;7.18;2.90;;;4.40;83.60;;;;;;4962718;29;20230;-77
2022/01/20 13:36:44;;;;;;;5.75;2.78;;;4.40;83.50;;;;;;4945030;29;20210;-77
2022/01/20 13:39:12;;;;;;;5.03;2.55;;;4.40;82.80;;;;;;4959747;28;20292;-79
2022/01/20 13:41:41;;;;;;;4.18;2.60;;;4.40;80.90;;;;;;4961246;28;20217;-78
2022/01/20 13:47:09;;;;;;;4.80;2.70;;;4.40;79.90;;;;;;4947904;29;20304;-77
2022/01/20 13:49:48;;;;;;;4.40;2.95;;;4.30;80.80;;;;;;4962389;28;20237;-78
2022/01/20 13:52:18;;;;;;;5.60;3.08;;;4.40;80.90;;;;;;4973493;28;20269;-76
2022/01/20 13:54:49;;;;;;;6.82;3.00;;;4.50;81.00;;;;;;4965278;29;20210;-76
2022/01/20 13:57:16;;;;;;;11.48;4.57;;;4.50;81.00;;;;;;4966235;28;20216;-76